Latest Weather Observations for Minlaton Airport

IDS60801

Issued at 1:35 pm CST Tuesday 2 September 2014 (issued every 30 minutes, with the page automatically refreshed every 10 minutes)

About weather observations | Map of weather stations | Latest weather observations for SA | Other Formats
Station Details ID: 022031 Name: MINLATON AERO Lat: -34.75 Lon: 137.53 Height: 32.0 m
Data from the previous 72 hours. | See also: Recent months at Minlaton Airport
Date/Time
CST
Temp
°C
App
Temp
°C
Dew
Point
Rel
Hum
%
Delta-T
°C
Wind Press
QNH
hPa
Press
MSL
hPa
Rain
since 9 am
mm
Dir
 
Spd
km/h
Gust
km/h
Spd
kts
Gust
kts
02/01:30pm 14.2 8.9 6.6 60 3.7 SSW 24 33 13 18 1025.7 1025.7 0.0
02/01:00pm 14.9 9.6 7.0 59 3.8 S 24 33 13 18 1025.7 1025.7 0.0
02/12:30pm 14.2 9.8 7.3 63 3.4 S 20 28 11 15 1025.8 1025.8 0.0
02/12:00pm 15.1 10.0 7.6 61 3.7 SSE 24 32 13 17 1025.7 1025.7 0.0
02/11:30am 14.5 9.2 6.6 59 3.8 S 24 32 13 17 1025.9 1025.9 0.0
02/11:00am 14.8 10.2 8.1 64 3.4 S 22 30 12 16 1026.1 1026.1 0.0
02/10:30am 13.5 8.2 6.8 64 3.2 S 24 32 13 17 1026.1 1026.1 0.0
02/10:00am 12.4 8.6 8.9 79 1.8 SSW 19 28 10 15 1026.3 1026.3 0.0
02/09:30am 12.7 9.1 8.2 74 2.2 S 17 24 9 13 1025.9 1025.9 0.0
02/09:00am 11.3 7.5 7.6 78 1.8 S 17 22 9 12 1025.7 1025.7 2.4
02/08:30am 9.9 7.4 8.0 88 0.9 S 11 15 6 8 1025.6 1025.6 2.4
02/08:00am 7.7 4.4 6.6 93 0.5 S 13 15 7 8 1025.4 1025.4 2.4
02/07:30am 5.4 2.1 4.5 94 0.4 S 11 11 6 6 1025.2 1025.2 2.4
02/07:00am 3.9 1.0 2.7 92 0.5 S 7 9 4 5 1024.8 1024.8 2.4
02/06:30am 6.0 1.6 5.0 93 0.4 SSW 17 20 9 11 1024.3 1024.3 2.4
02/06:00am 5.0 1.2 4.1 94 0.4 S 13 15 7 8 1023.9 1023.9 2.4
02/05:30am 4.8 1.8 4.1 95 0.3 S 9 13 5 7 1023.7 1023.7 2.4
02/05:00am 3.8 0.9 2.8 93 0.4 S 7 9 4 5 1023.1 1023.1 2.4
02/04:30am 4.5 1.0 3.3 92 0.5 S 11 13 6 7 1022.5 1022.5 2.4
02/04:00am 5.2 1.4 4.0 92 0.5 S 13 15 7 8 1022.2 1022.2 2.2
02/03:30am 6.4 2.8 5.2 92 0.5 SSW 13 17 7 9 1022.0 1022.0 2.2
02/03:00am 6.4 2.1 5.2 92 0.5 SSW 17 20 9 11 1021.9 1021.9 2.2
02/02:30am 6.9 2.7 5.5 91 0.6 SSW 17 20 9 11 1021.8 1021.8 2.2
02/02:00am 7.7 3.2 6.0 89 0.8 SW 19 24 10 13 1021.6 1021.6 2.2
02/01:30am 7.9 3.4 6.0 88 0.9 SW 19 24 10 13 1021.4 1021.4 2.2
02/01:00am 8.1 3.5 6.4 89 0.8 SW 20 26 11 14 1021.4 1021.4 2.2
02/12:30am 8.2 3.5 6.0 86 1.0 SW 20 30 11 16 1021.2 1021.2 2.2
02/12:00am 7.9 3.1 5.7 86 1.0 SW 20 28 11 15 1021.2 1021.2 2.2
 
Date/Time
CST
Temp
°C
App
Temp
°C
Dew
Point
Rel
Hum
%
Delta-T
°C
Wind Press
QNH
hPa
Press
MSL
hPa
Rain
since 9 am
mm
Dir
 
Spd
km/h
Gust
km/h
Spd
kts
Gust
kts
01/11:30pm 8.0 3.4 5.8 86 1.0 SW 19 26 10 14 1021.1 1021.1 2.2
01/11:00pm 7.9 3.1 5.7 86 1.0 SW 20 26 11 14 1020.9 1020.9 2.2
01/10:30pm 7.2 2.9 5.2 87 0.9 SW 17 22 9 12 1020.8 1020.8 2.2
01/10:00pm 7.9 3.2 6.2 89 0.8 SW 20 30 11 16 1020.7 1020.7 2.2
01/09:30pm 8.3 2.8 6.1 86 1.0 SSW 24 32 13 17 1020.1 1020.1 2.2
01/09:00pm 7.5 3.4 6.0 90 0.7 SW 17 20 9 11 1019.7 1019.7 2.2
01/08:30pm 8.7 3.8 6.8 88 0.9 SW 22 35 12 19 1019.6 1019.6 2.2
01/08:00pm 8.3 4.7 6.8 90 0.7 SSW 15 20 8 11 1019.1 1019.1 2.0
01/07:30pm 9.0 0.8 6.4 84 1.2 SW 39 50 21 27 1019.0 1019.0 1.8
01/07:29pm 9.0 0.8 6.6 85 1.1 SW 39 50 21 27 1018.9 1018.9 1.8
01/07:00pm 7.9 3.8 6.4 90 0.7 SW 17 24 9 13 1018.2 1018.2 1.8
01/06:30pm 8.8 2.8 6.9 88 0.9 SW 28 37 15 20 1017.8 1017.8 1.8
01/06:24pm 9.0 2.2 7.1 88 0.9 SSW 32 37 17 20 1017.7 1017.7 1.8
01/06:11pm 9.0 -0.1 5.7 80 1.5 WSW 43 65 23 35 1017.6 1017.6 1.6
01/06:00pm 11.0 6.5 6.9 76 1.9 SW 20 28 11 15 1017.0 1017.0 0.2
01/05:30pm 11.9 6.7 7.2 73 2.3 SW 24 30 13 16 1016.5 1016.5 0.2
01/05:00pm 12.3 6.9 7.8 74 2.2 SW 26 35 14 19 1016.2 1016.2 0.2
01/04:30pm 12.8 6.1 8.3 74 2.2 WSW 33 50 18 27 1015.8 1015.8 0.2
01/04:00pm 13.2 6.9 7.6 69 2.7 WSW 30 37 16 20 1015.5 1015.5 0.2
01/03:30pm 14.3 9.5 7.4 63 3.4 WSW 22 32 12 17 1015.2 1015.2 0.2
01/03:00pm 14.8 10.6 8.3 65 3.3 WSW 20 28 11 15 1015.0 1015.0 0.2
01/02:30pm 14.0 5.5 8.4 69 2.8 WSW 43 57 23 31 1014.9 1014.9 0.2
01/02:14pm 15.3 8.5 7.8 61 3.7 W 33 52 18 28 1014.7 1014.7 0.2
01/02:00pm 15.0 8.3 7.3 60 3.8 W 32 41 17 22 1014.7 1014.7 0.2
01/01:30pm 15.2 8.5 7.5 60 3.8 W 32 41 17 22 1014.6 1014.6 0.2
01/01:00pm 15.4 9.1 7.2 58 4.1 W 30 39 16 21 1014.6 1014.6 0.2
01/12:30pm 15.3 9.0 7.3 59 4.0 W 30 41 16 22 1014.7 1014.7 0.0
01/12:00pm 15.1 8.3 6.9 58 4.0 WSW 32 39 17 21 1014.9 1014.9 0.0
01/11:30am 14.9 9.6 8.4 65 3.3 WSW 26 35 14 19 1014.9 1014.9 0.0
01/11:00am 14.7 9.5 8.9 68 3.0 WSW 26 39 14 21 1015.0 1015.0 0.0
01/10:30am 14.4 9.7 9.2 71 2.7 SW 24 33 13 18 1014.9 1014.9 0.0
01/10:00am 13.6 10.5 10.2 80 1.8 SW 17 28 9 15 1014.8 1014.8 0.0
01/09:30am 13.2 10.1 10.4 83 1.5 SW 17 24 9 13 1014.5 1014.5 0.0
01/09:00am 12.4 8.9 10.1 86 1.2 WSW 19 24 10 13 1014.4 1014.4 8.4
01/08:30am 11.4 9.4 10.1 92 0.7 WSW 11 13 6 7 1014.0 1014.0 8.4
01/08:00am 11.2 9.6 10.1 93 0.6 W 9 11 5 6 1013.8 1013.8 8.4
01/07:30am 10.5 8.7 9.3 92 0.6 W 9 11 5 6 1013.6 1013.6 8.4
01/07:00am 10.7 6.8 9.3 91 0.7 SW 20 28 11 15 1013.5 1013.5 8.0
01/06:30am 11.1 9.1 10.3 95 0.4 W 11 15 6 8 1013.0 1013.0 8.0
01/06:00am 10.9 9.8 10.1 95 0.4 WSW 6 9 3 5 1012.8 1012.8 7.6
01/05:30am 10.9 9.8 10.1 95 0.4 SSW 6 7 3 4 1012.5 1012.5 7.6
01/05:00am 10.9 9.3 10.1 95 0.4 S 9 11 5 6 1012.1 1012.1 7.6
01/04:30am 11.5 7.9 10.6 94 0.5 SW 20 26 11 14 1012.1 1012.1 7.0
01/04:00am 12.4 10.8 11.6 95 0.4 WNW 11 15 6 8 1011.9 1011.9 6.8
01/03:30am 12.2 10.9 11.4 95 0.4 WNW 9 11 5 6 1011.4 1011.4 6.8
01/03:00am 12.0 10.7 11.2 95 0.4 NNW 9 11 5 6 1011.5 1011.5 6.8
01/02:30am 12.2 10.9 11.4 95 0.4 WNW 9 11 5 6 1011.9 1011.9 6.8
01/02:00am 12.2 10.9 11.4 95 0.4 W 9 11 5 6 1012.1 1012.1 6.2
01/01:30am 12.0 10.7 11.1 94 0.5 SW 9 11 5 6 1012.3 1012.3 4.6
01/01:00am 11.9 10.9 11.0 94 0.5 WSW 7 9 4 5 1012.1 1012.1 3.4
01/12:30am 12.0 10.7 11.1 94 0.5 WSW 9 11 5 6 1012.2 1012.2 3.0
01/12:00am 12.2 11.5 11.3 94 0.5 W 6 9 3 5 1012.7 1012.7 2.4
 
Date/Time
CST
Temp
°C
App
Temp
°C
Dew
Point
Rel
Hum
%
Delta-T
°C
Wind Press
QNH
hPa
Press
MSL
hPa
Rain
since 9 am
mm
Dir
 
Spd
km/h
Gust
km/h
Spd
kts
Gust
kts
31/11:30pm 12.3 11.0 11.4 94 0.5 W 9 13 5 7 1012.4 1012.4 1.4
31/11:00pm 12.5 9.7 11.4 93 0.6 SW 17 22 9 12 1011.7 1011.7 0.6
31/10:30pm 12.9 11.4 11.8 93 0.6 SW 11 13 6 7 1011.6 1011.6 0.0
31/10:00pm 13.0 10.3 11.6 91 0.7 WSW 17 22 9 12 1011.8 1011.8 0.0
31/09:30pm 13.5 11.6 11.9 90 0.9 SW 13 17 7 9 1011.6 1011.6 0.0
31/09:00pm 13.8 10.9 12.2 90 0.9 SW 19 24 10 13 1011.2 1011.2 0.0
31/08:30pm 14.0 11.2 12.6 91 0.8 WSW 19 24 10 13 1011.4 1011.4 0.0
31/08:00pm 14.1 11.6 12.3 89 1.0 SW 17 22 9 12 1011.0 1011.0 0.0
31/07:30pm 14.1 11.3 11.4 84 1.4 SW 17 22 9 12 1011.0 1011.0 0.0
31/07:00pm 14.6 11.0 10.6 77 2.1 SW 20 26 11 14 1010.1 1010.1 0.0
31/06:30pm 14.8 11.4 9.0 68 3.0 W 17 22 9 12 1011.0 1011.0 0.0
31/06:00pm 14.3 11.5 9.9 75 2.3 NW 15 17 8 9 1010.8 1010.8 0.0
31/05:30pm 14.8 12.4 10.2 74 2.4 N 13 13 7 7 1010.0 1010.0 0.0
31/05:00pm 15.6 14.1 10.6 72 2.6 N 9 11 5 6 1010.0 1010.0 0.0
31/04:30pm 16.2 14.2 10.3 68 3.1 NW 11 13 6 7 1010.4 1010.4 0.0
31/04:00pm 17.0 13.2 9.9 63 3.7 WNW 20 26 11 14 1010.2 1010.2 0.0
31/03:30pm 18.7 14.2 8.7 52 5.2 NW 22 32 12 17 1010.0 1010.0 0.0
31/03:00pm 21.2 16.3 6.7 39 7.4 NW 22 30 12 16 1009.8 1009.8 0.0
31/02:30pm 21.7 14.8 2.4 28 9.1 N 28 37 15 20 1009.3 1009.3 0.0
31/02:00pm 21.9 15.4 4.5 32 8.5 N 28 37 15 20 1009.6 1009.6 0.0
31/01:30pm 20.7 14.8 3.9 33 8.1 N 24 32 13 17 1010.4 1010.4 0.0
31/01:00pm 20.1 14.5 3.3 33 7.9 N 22 32 12 17 1011.4 1011.4 0.0
31/12:30pm 20.4 14.2 2.3 30 8.4 N 24 33 13 18 1011.9 1011.9 0.0
31/12:00pm 20.2 13.1 1.6 29 8.5 N 28 39 15 21 1012.6 1012.6 0.0
31/11:30am 21.1 12.6 0.9 26 9.2 N 35 46 19 25 1013.0 1013.0 0.0
31/11:00am 20.2 11.0 1.1 28 8.6 N 39 50 21 27 1013.4 1013.4 0.0
31/10:30am 20.0 11.6 1.4 29 8.5 N 35 50 19 27 1013.8 1013.8 0.0
31/10:14am 19.3 10.7 0.4 28 8.4 N 35 54 19 29 1014.0 1014.0 0.0
31/10:00am 19.8 11.2 0.3 27 8.7 N 35 46 19 25 1014.0 1014.0 0.0
31/09:30am 17.8 10.8 1.7 34 7.2 N 28 39 15 21 1014.5 1014.5 0.0
31/09:00am 16.5 10.3 2.2 38 6.4 N 24 35 13 19 1014.7 1014.7 0.0
31/08:30am 12.9 7.7 3.8 54 4.1 N 20 24 11 13 1014.5 1014.5 0.0
31/08:00am 12.8 7.4 2.4 49 4.5 N 20 24 11 13 1014.6 1014.6 0.0
31/07:30am 12.7 6.4 1.4 46 4.8 N 24 32 13 17 1014.0 1014.0 0.0
31/07:00am 11.4 5.5 1.6 51 4.1 N 22 28 12 15 1014.7 1014.7 0.0
31/06:30am 11.4 5.8 1.4 50 4.2 N 20 26 11 14 1014.7 1014.7 0.0
31/06:00am 11.5 5.6 1.5 50 4.2 N 22 28 12 15 1014.4 1014.4 0.0
31/05:30am 10.1 4.6 2.0 57 3.4 NNE 20 24 11 13 1014.3 1014.3 0.0
31/05:00am 10.5 5.2 1.9 55 3.6 NNE 19 20 10 11 1014.5 1014.5 0.0
31/04:30am 10.4 4.9 1.8 55 3.6 NNE 20 22 11 12 1014.1 1014.1 0.0
31/04:00am 11.2 5.8 1.2 50 4.2 NNE 19 24 10 13 1014.2 1014.2 0.0
31/03:30am 12.0 6.4 1.1 47 4.6 NNE 20 24 11 13 1014.1 1014.1 0.0
31/03:00am 13.6 7.9 0.3 40 5.6 N 20 26 11 14 1014.3 1014.3 0.0
31/02:30am 14.0 7.9 0.6 40 5.7 NNE 22 30 12 16 1014.6 1014.6 0.0
31/02:00am 13.2 7.6 0.9 43 5.2 NNE 20 24 11 13 1014.9 1014.9 0.0
31/01:30am 13.3 7.0 1.3 44 5.1 NNE 24 30 13 16 1015.2 1015.2 0.0
31/01:00am 13.0 7.1 1.7 46 4.9 NNE 22 28 12 15 1015.7 1015.7 0.0
31/12:30am 12.5 7.0 2.1 49 4.5 NNE 20 24 11 13 1015.8 1015.8 0.0
31/12:00am 12.6 7.2 2.5 50 4.4 NNE 20 24 11 13 1016.0 1016.0 0.0
 
Date/Time
CST
Temp
°C
App
Temp
°C
Dew
Point
Rel
Hum
%
Delta-T
°C
Wind Press
QNH
hPa
Press
MSL
hPa
Rain
since 9 am
mm
Dir
 
Spd
km/h
Gust
km/h
Spd
kts
Gust
kts
30/11:30pm 13.4 7.7 2.9 49 4.7 NNE 22 28 12 15 1016.2 1016.2 0.0
30/11:00pm 13.4 7.8 3.2 50 4.6 NNE 22 26 12 14 1016.5 1016.5 0.0
30/10:30pm 12.1 7.0 3.9 57 3.7 NNE 20 26 11 14 1016.8 1016.8 0.0
30/10:00pm 11.0 5.9 4.0 62 3.1 NNE 20 20 11 11 1017.2 1017.2 0.0
30/09:30pm 11.3 6.4 4.1 61 3.2 NNE 19 20 10 11 1017.6 1017.6 0.0
30/09:00pm 11.2 6.3 4.2 62 3.1 NNE 19 20 10 11 1017.9 1017.9 0.0
30/08:30pm 12.3 7.3 3.8 56 3.8 NNE 19 22 10 12 1017.9 1017.9 0.0
30/08:00pm 13.6 8.4 3.7 51 4.5 NNE 20 22 11 12 1017.9 1017.9 0.0
30/07:30pm 14.4 8.9 4.1 50 4.7 NE 22 26 12 14 1017.6 1017.6 0.0
30/07:00pm 14.7 9.7 4.7 51 4.7 NE 20 26 11 14 1017.5 1017.5 0.0
30/06:30pm 15.6 10.9 6.1 53 4.6 NE 20 24 11 13 1017.7 1017.7 0.0
30/06:00pm 15.5 11.0 7.0 57 4.2 NE 20 22 11 12 1017.7 1017.7 0.0
30/05:30pm 17.6 13.3 6.8 49 5.4 NNE 19 20 10 11 1017.8 1017.8 0.0
30/05:00pm 17.7 15.0 8.8 56 4.6 NNE 13 15 7 8 1017.8 1017.8 0.0
30/04:30pm 20.3 17.8 8.0 45 6.4 NNE 11 13 6 7 1017.9 1017.9 0.0
30/04:00pm 20.3 16.2 4.4 35 7.7 N 15 20 8 11 1018.0 1018.0 0.0
30/03:30pm 22.7 17.0 2.8 27 9.5 N 22 30 12 16 1018.3 1018.3 0.0
30/03:00pm 22.7 16.9 2.2 26 9.6 NNW 22 30 12 16 1018.7 1018.7 0.0
30/02:30pm 23.2 17.9 3.2 27 9.6 NNW 20 28 11 15 1019.1 1019.1 0.0
30/02:00pm 23.2 18.0 3.7 28 9.5 NNW 20 28 11 15 1019.6 1019.6 0.0

Other Formats:

Comma delimited format used in spreadsheet applications
http://www.bom.gov.au/fwo/IDS60801/IDS60801.95659.axf

JavaScript Object Notation format (JSON) in row-major order
http://www.bom.gov.au/fwo/IDS60801/IDS60801.95659.json